Time;durP1;ratioP1;P1;durP2;ratioP2;P2;SDS_P1;SDS_P2;PMS_P1;PMS_P2;Temp;Humidity;BMP_temperature;BMP_pressure;BME280_temperature;BME280_humidity;BME280_pressure;Samples;Min_cycle;Max_cycle;Signal;HPM_P1;HPM_P2
2024/02/15 00:00:06;;;;;;;17.95;4.85;;;12.60;50.20;;;;;;6285424;28;20073;-73
2024/02/15 00:03:08;;;;;;;9.48;3.97;;;12.50;50.20;;;;;;6305222;28;20150;-75
2024/02/15 00:06:08;;;;;;;16.73;4.35;;;12.50;50.40;;;;;;6301098;28;20220;-73
2024/02/15 00:09:10;;;;;;;8.43;4.20;;;12.50;50.80;;;;;;6297915;28;20036;-75
2024/02/15 00:12:12;;;;;;;12.48;4.70;;;12.40;51.10;;;;;;6291343;28;20104;-75
2024/02/15 00:15:13;;;;;;;9.93;4.90;;;12.30;51.20;;;;;;6285742;28;20062;-74
2024/02/15 00:18:14;;;;;;;6.07;3.88;;;12.20;51.30;;;;;;6290874;28;20393;-74
2024/02/15 00:21:16;;;;;;;9.60;4.05;;;12.20;51.60;;;;;;6297780;28;20043;-74
2024/02/15 00:24:17;;;;;;;15.02;4.95;;;12.20;51.70;;;;;;6276495;28;20035;-74
2024/02/15 00:27:18;;;;;;;13.15;4.43;;;12.10;51.80;;;;;;6280529;28;20170;-74
2024/02/15 00:30:21;;;;;;;10.07;4.85;;;12.10;52.00;;;;;;6267257;28;20844;-74
2024/02/15 00:33:22;;;;;;;16.15;5.43;;;12.10;52.20;;;;;;6266659;28;20038;-73
2024/02/15 00:36:23;;;;;;;9.48;4.57;;;12.10;52.10;;;;;;6280646;28;20748;-74
2024/02/15 00:39:24;;;;;;;17.70;5.90;;;12.10;52.10;;;;;;6295944;28;20108;-75
2024/02/15 00:42:25;;;;;;;10.20;4.88;;;12.10;52.10;;;;;;6280191;28;20149;-73
2024/02/15 00:45:26;;;;;;;11.68;4.28;;;12.10;52.10;;;;;;6292885;28;20036;-75
2024/02/15 00:48:29;;;;;;;10.32;4.80;;;12.10;52.10;;;;;;6272917;28;20360;-74
2024/02/15 00:51:30;;;;;;;12.63;4.70;;;12.10;52.20;;;;;;6282353;28;20024;-74
2024/02/15 00:54:31;;;;;;;9.40;4.97;;;12.20;52.00;;;;;;6297395;28;20031;-74
2024/02/15 00:57:32;;;;;;;11.80;5.18;;;12.20;52.00;;;;;;6302922;28;20117;-75
2024/02/15 01:00:33;;;;;;;14.10;4.88;;;12.30;52.00;;;;;;6300556;28;20111;-75
2024/02/15 01:03:35;;;;;;;9.57;4.22;;;12.30;51.90;;;;;;6285655;28;20024;-70
2024/02/15 01:06:36;;;;;;;14.65;4.75;;;12.40;51.90;;;;;;6267414;28;20070;-74
2024/02/15 01:09:37;;;;;;;11.40;4.72;;;12.40;51.80;;;;;;6305459;28;20052;-75
2024/02/15 01:12:38;;;;;;;11.82;4.57;;;12.40;51.70;;;;;;6285606;28;20039;-73
2024/02/15 01:15:41;;;;;;;11.23;4.05;;;12.40;51.70;;;;;;6286387;28;20070;-75
2024/02/15 01:18:45;;;;;;;10.40;5.00;;;12.40;51.70;;;;;;6292920;28;20028;-74
2024/02/15 01:21:46;;;;;;;11.90;5.10;;;12.40;51.60;;;;;;6294886;28;20013;-76
2024/02/15 01:24:47;;;;;;;12.85;5.28;;;12.40;51.70;;;;;;6291807;28;20032;-77
2024/02/15 01:27:48;;;;;;;11.45;4.65;;;12.40;51.70;;;;;;6304096;28;20474;-74
2024/02/15 01:30:49;;;;;;;12.45;4.88;;;12.40;51.80;;;;;;6288297;28;20187;-74
2024/02/15 01:33:51;;;;;;;13.85;5.55;;;12.40;51.90;;;;;;6303066;28;20024;-74
2024/02/15 01:36:51;;;;;;;16.65;5.28;;;12.30;51.90;;;;;;6291812;28;20027;-74
2024/02/15 01:39:53;;;;;;;8.18;4.38;;;12.30;52.20;;;;;;6294281;28;20016;-75
2024/02/15 01:42:54;;;;;;;11.38;4.75;;;12.20;52.30;;;;;;6292405;28;20031;-74
2024/02/15 01:45:58;;;;;;;18.50;5.55;;;12.10;52.50;;;;;;6303226;28;20099;-74
2024/02/15 01:48:58;;;;;;;12.52;5.40;;;12.00;52.50;;;;;;6298912;28;20387;-75
2024/02/15 01:52:01;;;;;;;11.80;5.72;;;12.00;52.60;;;;;;6284722;28;20016;-73
2024/02/15 01:55:07;;;;;;;15.52;5.18;;;11.90;52.70;;;;;;6284262;28;20044;-74
2024/02/15 01:58:08;;;;;;;18.00;5.53;;;11.90;53.00;;;;;;6302495;28;20146;-74
2024/02/15 02:01:10;;;;;;;12.55;4.55;;;11.80;53.00;;;;;;6283864;28;20143;-72
2024/02/15 02:04:12;;;;;;;9.65;3.95;;;11.80;53.10;;;;;;6282475;28;20048;-73
2024/02/15 02:07:14;;;;;;;13.70;4.60;;;11.80;53.20;;;;;;6281998;28;20059;-74
2024/02/15 02:10:15;;;;;;;13.48;5.65;;;11.80;53.70;;;;;;6289053;28;20131;-76
2024/02/15 02:13:17;;;;;;;13.27;4.78;;;11.80;53.10;;;;;;6293917;28;20020;-74
2024/02/15 02:16:27;;;;;;;11.65;5.50;;;11.70;53.20;;;;;;6292042;28;20044;-76
2024/02/15 02:19:28;;;;;;;13.48;4.65;;;11.70;53.30;;;;;;6298485;28;20024;-74
2024/02/15 02:22:32;;;;;;;8.50;4.60;;;11.60;53.40;;;;;;6297428;28;20125;-74
2024/02/15 02:25:34;;;;;;;9.65;3.85;;;11.60;53.50;;;;;;6296725;28;20504;-73
2024/02/15 02:28:36;;;;;;;9.63;4.43;;;11.60;53.60;;;;;;6299193;28;20031;-75
2024/02/15 02:31:37;;;;;;;12.07;5.32;;;11.60;53.70;;;;;;6297102;28;20044;-74
2024/02/15 02:34:40;;;;;;;13.73;4.53;;;11.60;53.70;;;;;;6303140;28;20028;-74
2024/02/15 02:37:43;;;;;;;7.88;4.22;;;11.60;53.70;;;;;;6303662;28;20028;-75
2024/02/15 02:40:44;;;;;;;9.00;3.92;;;11.60;53.50;;;;;;6303057;28;20051;-74
2024/02/15 02:43:46;;;;;;;10.23;4.47;;;11.70;53.40;;;;;;6295276;28;20082;-73
2024/02/15 02:46:47;;;;;;;12.15;4.80;;;11.70;53.40;;;;;;6301928;28;20540;-74
2024/02/15 02:49:48;;;;;;;11.02;3.53;;;11.80;53.30;;;;;;6289313;28;20053;-75
2024/02/15 02:52:49;;;;;;;10.10;4.20;;;11.80;53.20;;;;;;6297518;28;20590;-74
2024/02/15 02:55:56;;;;;;;7.30;3.97;;;11.80;53.20;;;;;;6288288;28;20555;-74
2024/02/15 02:58:58;;;;;;;21.67;4.18;;;11.80;53.00;;;;;;6296877;28;20077;-76
2024/02/15 03:01:59;;;;;;;14.57;4.82;;;11.90;53.00;;;;;;6285977;28;20058;-74
2024/02/15 03:05:05;;;;;;;16.70;3.35;;;11.90;53.00;;;;;;6292679;28;20099;-73
2024/02/15 03:08:08;;;;;;;8.77;3.33;;;11.90;52.90;;;;;;6290060;28;20033;-74
2024/02/15 03:11:12;;;;;;;5.22;2.80;;;12.00;53.00;;;;;;6306658;28;20070;-75
2024/02/15 03:14:12;;;;;;;9.25;3.92;;;12.00;52.90;;;;;;6306323;28;20092;-74
2024/02/15 03:17:13;;;;;;;7.93;3.15;;;12.00;52.80;;;;;;6272894;28;20091;-74
2024/02/15 03:20:26;;;;;;;8.32;3.65;;;12.00;52.80;;;;;;6306541;28;20039;-74
2024/02/15 03:23:28;;;;;;;11.65;5.05;;;12.00;52.70;;;;;;6293422;28;20013;-74
2024/02/15 03:26:40;;;;;;;9.90;4.47;;;12.00;52.80;;;;;;6294397;28;20113;-74
2024/02/15 03:29:40;;;;;;;12.07;4.78;;;12.00;53.00;;;;;;6305311;28;20133;-76
2024/02/15 03:32:43;;;;;;;9.93;4.93;;;11.90;53.10;;;;;;6287981;28;20496;-75
2024/02/15 03:35:44;;;;;;;9.00;5.10;;;11.90;53.20;;;;;;6289570;28;20028;-74
2024/02/15 03:38:46;;;;;;;14.20;5.10;;;11.90;53.30;;;;;;6302538;28;20059;-74
2024/02/15 03:41:47;;;;;;;9.82;4.72;;;11.90;53.50;;;;;;6308224;28;20111;-75
2024/02/15 03:44:50;;;;;;;13.50;5.90;;;11.80;53.50;;;;;;6319062;28;20397;-74
2024/02/15 03:47:52;;;;;;;22.08;5.32;;;11.70;53.60;;;;;;6301942;28;20123;-74
2024/02/15 03:50:53;;;;;;;12.57;5.13;;;11.70;53.70;;;;;;6306203;28;20836;-74
2024/02/15 03:53:55;;;;;;;14.63;5.53;;;11.70;53.80;;;;;;6294489;28;20040;-74
2024/02/15 03:56:57;;;;;;;11.00;4.82;;;11.70;53.80;;;;;;6296257;28;20143;-75
2024/02/15 03:59:58;;;;;;;10.85;5.20;;;11.70;53.80;;;;;;6305418;28;20024;-74
2024/02/15 04:03:00;;;;;;;10.88;4.20;;;11.70;53.80;;;;;;6275273;28;20051;-73
2024/02/15 04:06:01;;;;;;;17.98;5.20;;;11.70;53.80;;;;;;6302472;28;20474;-74
2024/02/15 04:09:04;;;;;;;12.57;4.72;;;11.60;53.80;;;;;;6297738;28;20038;-76
2024/02/15 04:12:06;;;;;;;10.82;4.93;;;11.70;53.80;;;;;;6280287;28;20465;-74
2024/02/15 04:15:11;;;;;;;8.32;4.65;;;11.60;53.80;;;;;;6288454;28;20107;-75
2024/02/15 04:18:14;;;;;;;9.32;4.38;;;11.60;53.90;;;;;;6295746;28;20068;-73
2024/02/15 04:21:16;;;;;;;11.23;4.78;;;11.50;54.10;;;;;;6285944;28;20054;-74
2024/02/15 04:24:20;;;;;;;10.98;3.90;;;11.50;54.30;;;;;;6269519;28;20490;-75
2024/02/15 04:27:20;;;;;;;11.13;4.65;;;11.40;54.40;;;;;;6274182;28;20021;-73
2024/02/15 04:30:23;;;;;;;9.27;3.92;;;11.40;54.60;;;;;;6264736;28;20681;-75
2024/02/15 04:33:25;;;;;;;10.13;4.68;;;11.30;54.60;;;;;;6300320;28;20689;-74
2024/02/15 04:40:50;;;;;;;10.95;3.72;;;11.10;55.00;;;;;;6295937;28;20035;-75
2024/02/15 04:43:52;;;;;;;10.55;4.53;;;11.00;55.40;;;;;;6299247;28;20477;-73
2024/02/15 04:46:54;;;;;;;13.68;4.97;;;11.00;55.60;;;;;;6296518;28;20137;-74
2024/02/15 04:49:56;;;;;;;9.55;4.07;;;10.90;55.70;;;;;;6305415;28;20382;-75
2024/02/15 04:52:56;;;;;;;6.63;3.38;;;10.90;55.70;;;;;;6304552;28;20029;-74
2024/02/15 04:56:02;;;;;;;15.05;4.38;;;10.90;55.60;;;;;;6290096;28;20115;-74
2024/02/15 04:59:03;;;;;;;13.65;4.20;;;10.90;55.70;;;;;;6292250;28;20493;-74
2024/02/15 05:02:04;;;;;;;10.55;4.43;;;10.90;55.80;;;;;;6291887;28;20016;-74
2024/02/15 05:05:13;;;;;;;8.75;4.30;;;10.90;55.90;;;;;;6301498;28;20024;-79
2024/02/15 05:08:14;;;;;;;17.33;5.90;;;10.90;56.00;;;;;;6303915;28;20663;-74
2024/02/15 05:11:16;;;;;;;15.52;6.85;;;10.80;56.00;;;;;;6267639;28;20016;-75
2024/02/15 05:14:23;;;;;;;28.38;8.60;;;10.80;56.10;;;;;;6283099;28;20021;-74
2024/02/15 05:17:23;;;;;;;41.38;9.95;;;10.80;56.20;;;;;;6304416;28;20152;-75
2024/02/15 05:20:27;;;;;;;22.83;7.72;;;10.80;56.30;;;;;;6302542;28;20621;-74
2024/02/15 05:23:28;;;;;;;19.60;6.78;;;10.70;56.40;;;;;;6302425;28;20012;-75
2024/02/15 05:26:30;;;;;;;13.68;5.72;;;10.70;56.40;;;;;;6306192;28;20039;-74
2024/02/15 05:29:35;;;;;;;11.50;4.57;;;10.80;56.40;;;;;;6293879;28;20023;-74
2024/02/15 05:32:41;;;;;;;11.35;4.60;;;10.70;56.30;;;;;;6281125;28;20054;-76
2024/02/15 05:35:46;;;;;;;11.32;5.55;;;10.70;56.20;;;;;;6290201;28;20123;-75
2024/02/15 05:38:53;;;;;;;13.15;4.90;;;10.80;56.10;;;;;;6271492;28;20023;-75
2024/02/15 05:41:54;;;;;;;6.15;3.40;;;10.80;56.20;;;;;;6285209;28;20012;-74
2024/02/15 05:44:54;;;;;;;10.70;4.10;;;10.80;56.20;;;;;;6298499;28;20028;-75
2024/02/15 05:47:55;;;;;;;8.50;2.83;;;10.70;56.30;;;;;;6279376;28;20115;-74
2024/02/15 05:51:00;;;;;;;9.95;2.92;;;10.60;56.30;;;;;;6303897;28;20884;-74
2024/02/15 05:54:01;;;;;;;9.77;2.75;;;10.60;56.40;;;;;;6282413;28;20068;-75
2024/02/15 05:57:02;;;;;;;7.68;3.55;;;10.50;57.00;;;;;;6299310;28;20028;-72
2024/02/15 06:00:03;;;;;;;9.93;3.97;;;10.40;56.50;;;;;;6296285;28;20024;-75
2024/02/15 06:03:09;;;;;;;8.70;3.05;;;10.30;56.80;;;;;;6303794;28;20602;-75
2024/02/15 06:06:11;;;;;;;8.23;3.53;;;10.20;57.10;;;;;;6287110;28;20052;-75
2024/02/15 06:09:13;;;;;;;12.18;4.18;;;10.10;57.30;;;;;;6289332;28;20033;-75
2024/02/15 06:12:14;;;;;;;9.95;4.15;;;10.10;57.60;;;;;;6284535;28;20024;-75
2024/02/15 06:15:15;;;;;;;9.38;4.32;;;10.00;57.80;;;;;;6296266;28;20056;-74
2024/02/15 06:18:21;;;;;;;8.23;4.20;;;10.00;58.00;;;;;;6288955;28;20454;-74
2024/02/15 06:21:23;;;;;;;12.48;4.30;;;9.90;58.10;;;;;;6281853;28;20508;-75
2024/02/15 06:24:24;;;;;;;9.77;4.05;;;9.90;58.20;;;;;;6278256;28;20059;-74
2024/02/15 06:27:26;;;;;;;8.15;4.28;;;9.90;58.30;;;;;;6295166;28;20024;-74
2024/02/15 06:40:30;;;;;;;14.45;5.25;;;9.90;58.50;;;;;;6295378;28;20017;-75
2024/02/15 06:43:34;;;;;;;11.48;4.32;;;9.90;58.50;;;;;;6299298;28;20044;-74
2024/02/15 06:46:37;;;;;;;6.88;3.72;;;10.00;58.50;;;;;;6282241;28;20044;-76
2024/02/15 06:49:41;;;;;;;14.30;5.30;;;10.00;58.50;;;;;;6284328;28;20119;-74
2024/02/15 06:52:42;;;;;;;22.63;7.63;;;10.10;58.40;;;;;;6285056;28;20442;-75
2024/02/15 06:55:42;;;;;;;10.95;4.72;;;10.10;58.30;;;;;;6300802;28;20085;-76
2024/02/15 06:58:43;;;;;;;13.00;4.47;;;10.20;58.40;;;;;;6299450;28;20101;-75
2024/02/15 07:01:54;;;;;;;9.07;4.68;;;10.30;58.30;;;;;;6284270;28;20046;-75
2024/02/15 07:04:55;;;;;;;10.38;5.00;;;10.30;58.20;;;;;;6283491;28;20036;-76
2024/02/15 07:07:56;;;;;;;12.80;5.88;;;10.40;58.10;;;;;;6286194;28;20024;-76
2024/02/15 07:10:58;;;;;;;15.20;5.85;;;10.50;58.00;;;;;;6310470;28;20119;-74
2024/02/15 07:13:59;;;;;;;18.13;5.18;;;10.60;57.90;;;;;;6303345;28;20087;-76
2024/02/15 07:17:00;;;;;;;20.23;5.32;;;10.70;57.80;;;;;;6300517;28;20031;-77
2024/02/15 07:20:00;;;;;;;12.95;5.13;;;10.80;57.70;;;;;;6300893;28;20031;-76
2024/02/15 07:23:01;;;;;;;13.57;5.35;;;10.90;57.40;;;;;;6302008;28;20138;-77
2024/02/15 07:26:04;;;;;;;9.43;4.93;;;10.90;57.30;;;;;;6293855;28;20617;-75
2024/02/15 07:29:08;;;;;;;10.43;4.95;;;11.00;57.10;;;;;;6284324;28;20028;-75
2024/02/15 07:32:09;;;;;;;10.75;4.70;;;11.00;57.10;;;;;;6302174;28;20069;-77
2024/02/15 07:35:10;;;;;;;7.10;3.80;;;11.00;57.10;;;;;;6304497;28;20024;-77
2024/02/15 07:38:11;;;;;;;6.88;4.03;;;11.00;57.10;;;;;;6302693;28;20092;-76
2024/02/15 07:41:12;;;;;;;14.20;4.30;;;11.00;57.00;;;;;;6305952;28;20020;-76
2024/02/15 07:44:15;;;;;;;8.30;3.25;;;11.00;56.90;;;;;;6276389;28;20396;-75
2024/02/15 07:47:19;;;;;;;10.35;4.72;;;11.10;56.90;;;;;;6294824;28;20036;-75
2024/02/15 07:50:22;;;;;;;16.77;3.92;;;11.10;56.80;;;;;;6299689;28;20119;-76
2024/02/15 07:53:25;;;;;;;9.18;3.97;;;11.20;56.80;;;;;;6298785;28;20028;-76
2024/02/15 07:56:27;;;;;;;11.43;4.72;;;11.30;56.50;;;;;;6304532;28;20020;-76
2024/02/15 07:59:28;;;;;;;7.50;3.47;;;11.40;56.30;;;;;;6291269;28;20035;-76
2024/02/15 08:02:29;;;;;;;6.55;3.13;;;11.40;56.20;;;;;;6287941;28;20078;-74
2024/02/15 08:05:30;;;;;;;11.18;4.60;;;11.50;56.20;;;;;;6292948;28;20024;-77
2024/02/15 08:08:31;;;;;;;9.82;4.65;;;11.60;56.10;;;;;;6270802;28;20028;-74
2024/02/15 08:11:31;;;;;;;11.25;4.03;;;11.60;56.00;;;;;;6286966;28;20024;-79
2024/02/15 08:14:34;;;;;;;6.47;3.85;;;11.70;55.90;;;;;;6280623;28;20027;-76
2024/02/15 08:17:37;;;;;;;10.48;3.47;;;11.80;55.80;;;;;;6301508;28;20681;-76
2024/02/15 08:20:40;;;;;;;14.93;3.95;;;12.00;55.70;;;;;;6306408;28;20386;-76
2024/02/15 08:23:41;;;;;;;10.02;4.03;;;12.10;55.60;;;;;;6289694;28;20016;-75
2024/02/15 08:26:43;;;;;;;10.95;4.47;;;12.20;55.40;;;;;;6305155;28;20088;-74
2024/02/15 08:29:44;;;;;;;25.48;4.30;;;12.30;55.10;;;;;;6309807;28;20020;-76
2024/02/15 08:32:47;;;;;;;7.90;3.75;;;12.30;55.00;;;;;;6297023;28;20020;-76
2024/02/15 08:35:49;;;;;;;14.43;4.10;;;12.40;55.00;;;;;;6290573;28;20606;-77
2024/02/15 08:38:50;;;;;;;8.80;3.58;;;12.50;54.80;;;;;;6304762;28;20016;-76
2024/02/15 08:41:53;;;;;;;12.00;4.40;;;12.60;54.80;;;;;;6289682;28;20035;-75
2024/02/15 08:44:55;;;;;;;9.25;4.22;;;12.60;54.60;;;;;;6270666;28;20155;-75
2024/02/15 08:47:56;;;;;;;9.77;3.03;;;12.70;54.30;;;;;;6287753;28;20039;-76
2024/02/15 08:50:56;;;;;;;7.78;4.18;;;12.70;54.10;;;;;;6305506;28;20081;-77
2024/02/15 08:54:00;;;;;;;6.40;3.00;;;12.80;53.80;;;;;;6296600;28;20020;-75
2024/02/15 08:57:01;;;;;;;10.45;4.57;;;12.90;53.50;;;;;;6306179;28;20020;-78
2024/02/15 09:00:09;;;;;;;11.05;3.92;;;13.00;53.20;;;;;;6307547;28;20099;-76
2024/02/15 09:03:12;;;;;;;11.27;3.38;;;13.20;53.10;;;;;;6284740;28;20165;-77
2024/02/15 09:06:15;;;;;;;8.98;2.95;;;13.30;52.50;;;;;;6283363;28;20036;-77
2024/02/15 09:09:16;;;;;;;11.05;3.97;;;13.40;52.30;;;;;;6298411;28;20043;-76
2024/02/15 09:12:17;;;;;;;7.38;3.58;;;13.60;52.20;;;;;;6293826;28;20020;-76
2024/02/15 09:15:19;;;;;;;10.05;3.92;;;13.70;52.00;;;;;;6280309;28;20541;-76
2024/02/15 09:18:23;;;;;;;11.20;4.13;;;13.90;51.50;;;;;;6280547;28;20788;-77
2024/02/15 09:21:26;;;;;;;12.25;4.20;;;14.00;51.40;;;;;;6304488;28;20027;-77
2024/02/15 09:24:28;;;;;;;7.15;4.22;;;14.10;51.30;;;;;;6300224;28;20738;-75
2024/02/15 09:27:29;;;;;;;14.50;3.90;;;14.30;51.10;;;;;;6275907;28;20024;-77
2024/02/15 09:30:59;;;;;;;9.15;4.50;;;14.40;50.80;;;;;;6282761;28;20512;-77
2024/02/15 09:34:00;;;;;;;10.32;4.05;;;14.50;50.60;;;;;;6308213;28;20034;-77
2024/02/15 09:37:00;;;;;;;9.57;4.93;;;14.70;50.30;;;;;;6304113;28;20035;-77
2024/02/15 09:40:06;;;;;;;11.35;4.57;;;14.90;49.80;;;;;;6304799;28;20020;-74
2024/02/15 09:43:09;;;;;;;18.50;5.95;;;15.00;49.40;;;;;;6293859;28;20088;-76
2024/02/15 09:46:10;;;;;;;15.77;5.53;;;15.10;48.90;;;;;;6284134;28;20101;-76
2024/02/15 09:49:12;;;;;;;8.50;3.85;;;15.20;48.80;;;;;;6284072;28;20061;-75
2024/02/15 09:52:15;;;;;;;10.82;4.15;;;15.30;48.70;;;;;;6305136;28;20132;-75
2024/02/15 09:55:17;;;;;;;5.45;2.95;;;15.40;48.50;;;;;;6307213;28;20111;-77
2024/02/15 09:58:18;;;;;;;13.50;3.15;;;15.60;48.10;;;;;;6286911;28;20028;-76
2024/02/15 10:01:23;;;;;;;25.65;6.05;;;15.80;47.90;;;;;;6275727;28;20024;-78
2024/02/15 10:04:25;;;;;;;9.68;4.22;;;16.00;47.20;;;;;;6287086;28;20032;-76
2024/02/15 10:07:29;;;;;;;8.00;3.30;;;16.10;47.10;;;;;;6265825;28;20043;-79
2024/02/15 10:10:30;;;;;;;6.40;2.92;;;16.20;46.90;;;;;;6298594;28;20020;-77
2024/02/15 10:13:32;;;;;;;7.07;2.85;;;16.40;46.50;;;;;;6289322;28;20052;-77
2024/02/15 10:16:35;;;;;;;11.95;2.35;;;16.50;46.20;;;;;;6303660;28;20409;-76
2024/02/15 10:19:36;;;;;;;13.52;2.47;;;16.60;46.20;;;;;;6306977;28;20067;-77
2024/02/15 10:22:38;;;;;;;14.13;5.25;;;16.70;45.60;;;;;;6306178;28;20021;-75
2024/02/15 10:25:41;;;;;;;8.15;3.30;;;16.70;45.40;;;;;;6261308;28;20028;-75
2024/02/15 10:28:41;;;;;;;6.63;2.50;;;16.70;45.20;;;;;;6293228;28;20334;-78
2024/02/15 10:31:53;;;;;;;6.90;3.30;;;16.70;45.10;;;;;;6283924;28;20070;-76
2024/02/15 10:34:55;;;;;;;11.65;4.60;;;16.60;44.80;;;;;;6293818;28;20039;-76
2024/02/15 10:38:13;;;;;;;11.35;4.45;;;16.60;44.70;;;;;;6309703;28;20043;-77
2024/02/15 10:41:15;;;;;;;8.73;3.33;;;16.50;44.70;;;;;;6291460;28;20086;-76
2024/02/15 10:44:22;;;;;;;13.70;5.95;;;16.50;44.80;;;;;;6307517;28;20028;-76
2024/02/15 10:47:27;;;;;;;15.45;3.35;;;16.50;44.90;;;;;;6307175;28;20500;-77
2024/02/15 10:50:28;;;;;;;4.63;2.55;;;16.50;44.70;;;;;;6306133;28;20031;-79
2024/02/15 10:53:32;;;;;;;10.95;3.63;;;16.50;44.40;;;;;;6306827;28;20429;-75
2024/02/15 10:56:42;;;;;;;15.98;3.10;;;16.40;44.60;;;;;;6304692;28;20093;-77
2024/02/15 10:59:57;;;;;;;4.55;2.45;;;16.50;44.60;;;;;;6290111;28;20058;-80
2024/02/15 11:03:02;;;;;;;4.07;1.98;;;16.50;44.20;;;;;;6305629;28;20092;-77
2024/02/15 11:06:07;;;;;;;14.80;2.90;;;16.50;43.80;;;;;;6308871;28;20068;-75
2024/02/15 11:09:11;;;;;;;5.72;2.10;;;16.50;43.60;;;;;;6309902;28;20027;-78
2024/02/15 11:12:11;;;;;;;6.07;2.60;;;16.40;43.80;;;;;;6309881;28;20818;-76
2024/02/15 11:15:35;;;;;;;4.50;2.45;;;16.50;43.90;;;;;;6285860;28;20059;-76
2024/02/15 11:18:51;;;;;;;4.47;2.85;;;16.80;44.00;;;;;;6301057;28;20233;-77
2024/02/15 11:26:47;;;;;;;15.90;3.15;;;16.80;44.20;;;;;;6307651;28;20142;-77
2024/02/15 11:29:51;;;;;;;11.80;3.70;;;16.90;44.20;;;;;;6290704;28;20013;-75
2024/02/15 11:32:57;;;;;;;13.48;2.80;;;17.00;44.20;;;;;;6296176;28;20121;-77
2024/02/15 11:36:07;;;;;;;7.50;2.85;;;17.20;44.20;;;;;;6282173;28;20048;-76
2024/02/15 11:39:42;;;;;;;10.75;2.78;;;17.20;44.00;;;;;;6292041;28;20080;-76
2024/02/15 11:42:44;;;;;;;10.65;2.88;;;17.30;43.70;;;;;;6296180;28;20020;-76
2024/02/15 11:45:45;;;;;;;7.05;3.38;;;17.20;43.30;;;;;;6286071;28;20059;-75
2024/02/15 11:48:51;;;;;;;19.63;3.33;;;17.10;43.20;;;;;;6306662;28;20032;-76
2024/02/15 11:51:57;;;;;;;9.05;3.20;;;17.00;43.30;;;;;;6299923;28;20121;-76
2024/02/15 11:55:47;;;;;;;11.13;2.92;;;17.00;43.60;;;;;;6290835;28;20048;-75
2024/02/15 11:59:18;;;;;;;9.93;3.13;;;16.90;43.80;;;;;;6290397;28;20134;-76
2024/02/15 12:18:58;;;;;;;8.52;3.08;;;17.00;46.00;;;;;;6303288;28;20096;-76
2024/02/15 12:22:00;;;;;;;9.57;3.03;;;17.30;46.00;;;;;;6293950;28;20078;-78
2024/02/15 12:25:11;;;;;;;8.82;3.13;;;17.60;45.60;;;;;;6307510;28;20073;-75
2024/02/15 12:28:15;;;;;;;7.25;2.97;;;17.90;45.20;;;;;;6301845;28;20032;-78
2024/02/15 12:31:17;;;;;;;5.18;2.67;;;18.30;44.90;;;;;;6286942;28;20021;-76
2024/02/15 12:34:21;;;;;;;6.88;3.13;;;18.40;44.50;;;;;;6288728;28;20028;-76
2024/02/15 12:37:23;;;;;;;15.45;2.78;;;18.50;44.40;;;;;;6304884;28;20465;-77
2024/02/15 12:40:34;;;;;;;7.75;3.22;;;18.60;44.30;;;;;;6286085;28;20024;-76
2024/02/15 12:43:35;;;;;;;8.60;3.38;;;18.60;44.30;;;;;;6303590;28;20107;-77
2024/02/15 12:46:38;;;;;;;6.90;3.38;;;18.60;44.40;;;;;;6281999;28;20079;-76
2024/02/15 12:49:39;;;;;;;6.50;3.53;;;18.60;44.40;;;;;;6289007;28;20028;-77
2024/02/15 12:52:40;;;;;;;15.52;2.85;;;18.60;44.40;;;;;;6288819;28;20107;-77
2024/02/15 12:55:41;;;;;;;7.30;2.53;;;18.60;44.50;;;;;;6289778;28;20565;-75
2024/02/15 12:58:43;;;;;;;4.85;2.70;;;18.70;44.50;;;;;;6267083;28;20082;-75
2024/02/15 13:01:46;;;;;;;8.50;2.80;;;18.60;44.50;;;;;;6302125;28;21527;-76
2024/02/15 13:04:47;;;;;;;4.75;2.65;;;18.60;44.50;;;;;;6290014;28;20197;-75
2024/02/15 13:07:50;;;;;;;5.68;2.38;;;18.50;44.60;;;;;;6305628;28;20024;-78
2024/02/15 13:10:51;;;;;;;6.95;2.50;;;18.50;44.70;;;;;;6292758;28;20024;-76
2024/02/15 13:13:52;;;;;;;3.40;2.60;;;18.60;45.40;;;;;;6301197;28;20016;-75
2024/02/15 13:16:52;;;;;;;6.72;2.97;;;18.60;44.70;;;;;;6281159;28;20535;-76
2024/02/15 13:20:02;;;;;;;6.53;2.30;;;18.70;44.40;;;;;;6305874;28;20038;-77
2024/02/15 13:23:22;;;;;;;7.38;2.78;;;18.80;43.60;;;;;;6287640;28;20254;-75
2024/02/15 13:26:25;;;;;;;4.40;2.67;;;18.90;42.90;;;;;;6304309;28;20032;-76
2024/02/15 13:29:26;;;;;;;13.93;2.55;;;19.10;42.40;;;;;;6270602;28;20111;-77
2024/02/15 13:32:29;;;;;;;6.05;2.65;;;19.30;41.90;;;;;;6299379;28;20392;-77
2024/02/15 13:35:30;;;;;;;14.70;2.90;;;19.40;41.60;;;;;;6297055;28;20103;-76
2024/02/15 13:38:31;;;;;;;7.72;2.55;;;19.60;41.20;;;;;;6299172;28;20457;-76
2024/02/15 13:41:33;;;;;;;8.15;3.42;;;19.80;40.70;;;;;;6292897;28;20089;-77
2024/02/15 13:44:35;;;;;;;9.55;3.40;;;19.80;40.40;;;;;;6292891;28;20477;-74
2024/02/15 13:47:37;;;;;;;7.97;3.38;;;19.80;40.30;;;;;;6281883;28;20024;-78
2024/02/15 13:50:39;;;;;;;12.30;3.42;;;19.90;40.30;;;;;;6290798;28;20167;-78
2024/02/15 13:53:47;;;;;;;8.90;2.97;;;19.90;40.30;;;;;;6298433;28;20020;-76
2024/02/15 13:56:48;;;;;;;8.02;2.67;;;19.90;40.00;;;;;;6279171;28;20424;-76
2024/02/15 13:59:48;;;;;;;8.15;2.72;;;19.80;39.90;;;;;;6304171;28;20044;-78
2024/02/15 14:02:53;;;;;;;7.45;2.92;;;19.80;39.80;;;;;;6288816;28;20106;-77
2024/02/15 14:05:57;;;;;;;6.10;2.75;;;19.80;39.80;;;;;;6301087;28;20111;-76
2024/02/15 14:08:57;;;;;;;8.88;2.35;;;19.80;39.90;;;;;;6305673;28;20103;-77
2024/02/15 14:11:58;;;;;;;6.30;2.33;;;19.80;39.90;;;;;;6297056;28;20064;-76
2024/02/15 14:14:59;;;;;;;13.93;2.70;;;19.90;39.90;;;;;;6303949;28;20021;-77
2024/02/15 14:18:02;;;;;;;11.30;2.35;;;20.00;39.90;;;;;;6305254;28;20543;-77
2024/02/15 14:21:03;;;;;;;4.13;2.20;;;19.80;39.90;;;;;;6304583;28;20012;-76
2024/02/15 14:24:06;;;;;;;11.73;2.60;;;20.00;40.40;;;;;;6305058;28;20020;-76
2024/02/15 14:27:08;;;;;;;10.45;3.38;;;19.90;41.20;;;;;;6287740;28;20233;-77
2024/02/15 14:33:33;;;;;;;10.75;2.90;;;19.80;40.40;;;;;;6304472;28;20068;-75
2024/02/15 14:36:36;;;;;;;11.13;3.33;;;19.70;40.20;;;;;;6306411;28;20499;-75
2024/02/15 14:39:39;;;;;;;8.38;2.92;;;19.70;40.00;;;;;;6305799;28;20569;-76
2024/02/15 14:42:41;;;;;;;5.18;2.65;;;19.70;40.10;;;;;;6321908;28;20059;-77
2024/02/15 14:45:42;;;;;;;9.80;2.90;;;19.70;40.00;;;;;;6272777;28;20024;-77
2024/02/15 14:48:46;;;;;;;5.22;2.53;;;19.70;39.90;;;;;;6301351;28;20487;-76
2024/02/15 14:51:47;;;;;;;10.30;2.97;;;19.80;39.90;;;;;;6278847;28;20095;-77
2024/02/15 14:54:48;;;;;;;8.23;3.08;;;19.80;39.90;;;;;;6269737;28;20057;-75
2024/02/15 14:57:49;;;;;;;7.28;3.08;;;19.80;39.90;;;;;;6285325;28;20464;-75
2024/02/15 15:00:50;;;;;;;5.53;2.40;;;19.90;40.00;;;;;;6300185;28;20023;-77
2024/02/15 15:03:54;;;;;;;6.90;2.72;;;19.90;40.20;;;;;;6286714;28;20021;-77
2024/02/15 15:13:34;;;;;;;5.85;2.90;;;19.90;40.30;;;;;;6302559;28;20036;-74
2024/02/15 15:16:35;;;;;;;7.05;2.80;;;19.90;40.00;;;;;;6302294;28;20042;-78
2024/02/15 15:19:36;;;;;;;5.88;2.60;;;19.90;39.80;;;;;;6283065;28;20025;-76
2024/02/15 15:22:37;;;;;;;6.30;2.50;;;19.90;39.70;;;;;;6285284;28;20020;-77
2024/02/15 15:25:42;;;;;;;13.65;2.90;;;19.90;39.70;;;;;;6298784;28;20046;-76
2024/02/15 15:28:45;;;;;;;7.63;2.30;;;19.90;39.60;;;;;;6301298;28;20349;-76
2024/02/15 15:31:45;;;;;;;8.23;2.85;;;19.80;39.50;;;;;;6306115;28;20020;-77
2024/02/15 15:34:47;;;;;;;5.25;2.88;;;19.70;39.60;;;;;;6300661;28;20091;-76
2024/02/15 15:37:50;;;;;;;10.73;2.55;;;19.60;39.70;;;;;;6298876;28;20032;-77
2024/02/15 15:40:53;;;;;;;10.70;2.53;;;19.50;39.70;;;;;;6298039;28;20043;-77
2024/02/15 15:43:57;;;;;;;10.07;2.50;;;19.40;39.80;;;;;;6334020;27;20051;-76
2024/02/15 15:46:59;;;;;;;9.10;3.50;;;19.30;40.00;;;;;;6300972;28;20036;-77
2024/02/15 15:50:01;;;;;;;8.38;2.47;;;19.20;40.20;;;;;;6299031;28;20020;-77
2024/02/15 15:53:06;;;;;;;8.48;3.25;;;19.10;40.50;;;;;;6301785;28;20121;-77
2024/02/15 15:56:09;;;;;;;10.93;3.00;;;19.00;40.80;;;;;;6300055;28;20032;-76
2024/02/15 15:59:10;;;;;;;13.82;3.65;;;19.00;41.10;;;;;;6287318;28;20106;-77
2024/02/15 16:02:12;;;;;;;12.27;3.40;;;18.90;41.30;;;;;;6309593;28;20020;-76
2024/02/15 16:05:15;;;;;;;6.45;2.85;;;18.90;41.40;;;;;;6302660;28;20024;-76
2024/02/15 16:08:16;;;;;;;12.20;3.83;;;18.80;41.50;;;;;;6300581;28;20123;-77
2024/02/15 16:11:17;;;;;;;8.00;3.25;;;18.90;41.60;;;;;;6301364;28;20023;-76
2024/02/15 16:14:19;;;;;;;8.82;3.60;;;18.80;41.60;;;;;;6300039;28;20079;-77
2024/02/15 16:17:22;;;;;;;7.03;3.00;;;18.80;41.60;;;;;;6301545;28;20720;-75
2024/02/15 16:20:23;;;;;;;8.75;2.40;;;18.80;41.60;;;;;;6301827;28;20062;-77
2024/02/15 16:23:25;;;;;;;6.18;2.83;;;18.70;41.70;;;;;;6300306;28;20089;-77
2024/02/15 16:26:26;;;;;;;10.18;3.50;;;18.60;41.70;;;;;;6301784;28;20131;-76
2024/02/15 16:29:27;;;;;;;5.80;3.00;;;18.60;41.80;;;;;;6297880;28;20468;-76